FYGA4: White River At Fayetteville, AR

                                SHEF ID:       FYGA4     White River near Fayetteville, A
STATION TYPE: Stream Gauge

PRECIP STAGE RIV-FLOW WTR-TEMP DIS-OXY PH CONDUCT BAT-LOAD
in ft cfs F mg/l su umho/cm volt
Ccp-Rev Ccp-Rev Ccp-Rev Ccp-Rev Ccp-Rev Ccp-Rev Ccp-Rev Ccp-Rev
(America/Chicago)
05/21 00:00 0.00 2.63 239 76.39 7.01 7.51 108 12.81
05/21 01:00 0.00 2.64 242 76.14 7.00 7.50 108 12.73
05/21 02:00 0.00 2.64 242 75.94 6.98 7.48 108 12.73
05/21 03:00 0.00 2.63 239 75.87 6.95 7.48 109 12.73
05/21 04:00 0.00 2.63 239 75.78 6.95 7.48 108 12.65
05/21 05:00 0.00 2.62 235 75.63 6.93 7.47 108 12.65
05/21 06:00 0.00 2.62 235 75.47 6.94 7.47 109 12.65
05/21 07:00 0.00 2.62 235 75.40 6.96 7.48 108 12.57
05/21 08:00 0.00 2.60 229 75.33 7.01 7.49 109 13.05
05/21 09:00 0.00 2.60 229 75.54 7.21 7.53 109 13.44
05/21 10:00 0.00 2.64 242 76.08 7.46 7.59 107 13.84
05/21 11:00 0.00 2.63 239 76.98 7.64 7.66 106 13.60
05/21 12:00 0.00 2.66 249 77.97 7.87 7.74 106 13.60
05/21 13:00 0.00 2.60 229 78.96 8.02 7.80 107 13.53
05/21 14:00 0.00 2.57 219 79.21 7.96 7.83 110 13.44
05/21 15:00 0.00 2.55 213 78.64 7.59 7.75 111 12.97
05/21 16:00 0.00 2.52 204 78.13 7.41 7.68 113 12.97
05/21 17:00 0.02 2.53 207 77.81 7.43 7.68 112 12.97
05/21 18:00 0.00 2.53 207 77.50 7.17 7.62 112 12.97
05/21 19:00 0.00 2.52 204 77.29 6.98 7.59 113 12.97
05/21 20:00 0.00 2.52 204 77.00 6.83 7.54 112 12.81
05/21 21:00 0.00 2.51 201 76.82 6.75 7.52 113 12.81
05/21 22:00 0.00 2.51 201 76.69 6.71 7.51 112 12.81
05/21 23:00 0.00 2.51 201 76.53 6.69 7.47 112 12.81
Data processed at Wed 22May2024 04:10 GMT

Parsing this webpage?

Checkout our new Data API! CWMSDataAPI (CDA)

Timeseries IDs (TSIDs)

TSIDs used from left to right in the data table
FAYE.Precip-Inc.Total.1Hour.1Hour.Ccp-Rev
FAYE.Stage.Inst.1Hour.0.Ccp-Rev
FAYE.Flow.Inst.1Hour.0.Ccp-Rev
FAYE.Temp-Water.Inst.1Hour.0.Ccp-Rev
FAYE.Conc-DO.Inst.1Hour.0.Ccp-Rev
FAYE.pH.Inst.1Hour.0.Ccp-Rev
FAYE.Cond-Water.Inst.1Hour.0.Ccp-Rev
FAYE.Volt-Battery Load.Inst.1Hour.0.Ccp-Rev

                            

All information presented herein is the property of the government of the United States of America and may be revised or deleted at any time without prior notice. Dissemination of this information without the expressed written consent of the Public Affairs Office, Tulsa District U.S. Army Corps of Engineers is strictly prohibited. These data are gathered electronically and, as presented, have NOT undergone any form of quality control. These data are NOT guaranteed to be valid or correct.